Time;durP1;ratioP1;P1;durP2;ratioP2;P2;SDS_P1;SDS_P2;PMS_P1;PMS_P2;Temp;Humidity;BMP_temperature;BMP_pressure;BME280_temperature;BME280_humidity;BME280_pressure;Samples;Min_cycle;Max_cycle;Signal;HPM_P1;HPM_P2
2024/02/24 00:01:41;;;;;;;28.17;20.07;;;;;;;;;;5111477;28;20260;-87
2024/02/24 00:04:08;;;;;;;14.17;11.80;;;;;;;;;;5075876;28;20219;-87
2024/02/24 00:06:35;;;;;;;33.33;24.10;;;;;;;;;;5092276;28;20274;-87
2024/02/24 00:09:02;;;;;;;47.63;35.10;;;;;;;;;;5100360;28;20633;-87
2024/02/24 00:11:28;;;;;;;72.67;50.80;;;;;;;;;;5092513;28;20204;-87
2024/02/24 00:13:57;;;;;;;25.00;18.53;;;;;;;;;;5092293;28;20196;-87
2024/02/24 00:16:24;;;;;;;11.47;10.00;;;;;;;;;;5108870;28;20206;-88
2024/02/24 00:18:55;;;;;;;18.67;13.73;;;;;;;;;;5091946;28;20200;-87
2024/02/24 00:21:22;;;;;;;11.87;10.13;;;;;;;;;;5091756;28;20291;-87
2024/02/24 00:23:48;;;;;;;9.93;8.63;;;;;;;;;;5090680;28;20200;-87
2024/02/24 00:26:15;;;;;;;7.77;6.97;;;;;;;;;;5091857;28;20273;-86
2024/02/24 00:28:42;;;;;;;13.67;12.10;;;;;;;;;;5091795;28;20192;-87
2024/02/24 00:31:10;;;;;;;25.63;21.93;;;;;;;;;;5092235;28;20196;-87
2024/02/24 00:33:38;;;;;;;20.17;17.23;;;;;;;;;;5091571;28;20228;-88
2024/02/24 00:36:05;;;;;;;13.33;11.50;;;;;;;;;;5091811;28;20196;-87
2024/02/24 00:38:32;;;;;;;8.90;8.00;;;;;;;;;;5092774;28;20269;-87
2024/02/24 00:40:58;;;;;;;9.23;8.33;;;;;;;;;;5082654;28;20203;-87
2024/02/24 00:43:25;;;;;;;8.33;6.97;;;;;;;;;;5091699;28;20266;-87
2024/02/24 00:45:52;;;;;;;9.13;7.93;;;;;;;;;;5092026;28;20556;-87
2024/02/24 00:48:21;;;;;;;11.27;8.63;;;;;;;;;;5091966;28;20257;-87
2024/02/24 00:50:48;;;;;;;8.90;8.00;;;;;;;;;;5105872;28;20195;-87
2024/02/24 00:53:14;;;;;;;8.47;7.63;;;;;;;;;;5094339;28;20200;-87
2024/02/24 00:55:41;;;;;;;10.53;7.57;;;;;;;;;;5091834;28;20207;-87
2024/02/24 00:58:08;;;;;;;9.07;7.83;;;;;;;;;;5097964;28;20608;-87
2024/02/24 01:00:37;;;;;;;8.20;7.40;;;;;;;;;;5104674;28;20724;-87
2024/02/24 01:03:04;;;;;;;10.50;8.83;;;;;;;;;;5094977;28;20192;-87
2024/02/24 01:05:32;;;;;;;8.43;7.57;;;;;;;;;;5095842;28;20200;-87
2024/02/24 01:07:59;;;;;;;8.10;7.30;;;;;;;;;;5095261;28;20220;-87
2024/02/24 01:10:26;;;;;;;8.20;7.43;;;;;;;;;;5095284;28;20669;-88
2024/02/24 01:12:53;;;;;;;9.20;7.87;;;;;;;;;;5095013;28;20293;-87
2024/02/24 01:15:20;;;;;;;25.97;22.40;;;;;;;;;;5095390;28;20207;-88
2024/02/24 01:17:48;;;;;;;13.47;11.70;;;;;;;;;;5095155;28;20689;-87
2024/02/24 01:20:15;;;;;;;11.87;8.73;;;;;;;;;;5094946;28;20199;-88
2024/02/24 01:22:45;;;;;;;8.30;7.20;;;;;;;;;;5095847;28;20245;-87
2024/02/24 01:25:12;;;;;;;10.30;8.37;;;;;;;;;;5095648;28;20588;-87
2024/02/24 01:27:39;;;;;;;10.00;8.97;;;;;;;;;;5094965;28;20239;-87
2024/02/24 01:30:07;;;;;;;11.80;9.13;;;;;;;;;;5110900;28;20199;-87
2024/02/24 01:32:34;;;;;;;13.93;8.60;;;;;;;;;;5105436;28;20258;-88
2024/02/24 01:35:02;;;;;;;10.97;8.47;;;;;;;;;;5094880;28;20223;-87
2024/02/24 01:37:29;;;;;;;10.37;8.57;;;;;;;;;;5102776;28;20286;-87
2024/02/24 01:39:57;;;;;;;9.40;7.97;;;;;;;;;;5097487;28;20736;-87
2024/02/24 01:42:23;;;;;;;18.53;15.20;;;;;;;;;;5095004;28;20196;-87
2024/02/24 01:44:50;;;;;;;17.07;15.20;;;;;;;;;;5094631;28;20269;-87
2024/02/24 01:47:18;;;;;;;14.73;11.47;;;;;;;;;;5076665;28;20220;-87
2024/02/24 01:49:45;;;;;;;11.50;9.87;;;;;;;;;;5090581;28;20249;-88
2024/02/24 01:52:12;;;;;;;10.83;9.73;;;;;;;;;;5093971;28;20196;-87
2024/02/24 01:54:39;;;;;;;13.17;9.60;;;;;;;;;;5098221;28;20672;-87
2024/02/24 01:57:08;;;;;;;10.77;9.50;;;;;;;;;;5106945;28;20563;-87
2024/02/24 01:59:34;;;;;;;9.93;8.93;;;;;;;;;;5094000;28;20200;-87
2024/02/24 02:02:01;;;;;;;11.60;10.23;;;;;;;;;;5094768;28;20192;-88
2024/02/24 02:04:28;;;;;;;11.13;8.10;;;;;;;;;;5094313;28;20600;-87
2024/02/24 02:06:55;;;;;;;7.93;6.47;;;;;;;;;;5093604;28;20302;-88
2024/02/24 02:09:22;;;;;;;9.53;8.53;;;;;;;;;;5093559;28;20203;-87
2024/02/24 02:11:49;;;;;;;9.67;8.53;;;;;;;;;;5093092;28;20283;-88
2024/02/24 02:14:17;;;;;;;10.47;8.67;;;;;;;;;;5094637;28;20200;-87
2024/02/24 02:16:44;;;;;;;9.40;7.93;;;;;;;;;;5101952;28;20677;-87
2024/02/24 02:19:11;;;;;;;8.40;7.60;;;;;;;;;;5093995;28;20257;-87
2024/02/24 02:21:38;;;;;;;9.33;8.30;;;;;;;;;;5093933;28;20280;-87
2024/02/24 02:24:07;;;;;;;9.03;8.07;;;;;;;;;;5089033;28;20630;-87
2024/02/24 02:26:34;;;;;;;7.27;6.53;;;;;;;;;;5086294;28;20227;-87
2024/02/24 02:29:01;;;;;;;8.13;7.20;;;;;;;;;;5081507;28;20196;-87
2024/02/24 02:31:28;;;;;;;9.20;7.37;;;;;;;;;;5093905;28;20716;-88
2024/02/24 02:33:55;;;;;;;9.70;7.53;;;;;;;;;;5093389;28;20220;-87
2024/02/24 02:36:21;;;;;;;8.63;7.07;;;;;;;;;;5094099;28;20249;-87
2024/02/24 02:38:48;;;;;;;8.17;7.10;;;;;;;;;;5090574;28;20249;-87
2024/02/24 02:41:16;;;;;;;8.40;7.30;;;;;;;;;;5088570;28;20206;-87
2024/02/24 02:43:43;;;;;;;11.27;7.97;;;;;;;;;;5109884;28;20192;-86
2024/02/24 02:46:10;;;;;;;10.67;7.93;;;;;;;;;;5093608;28;20196;-87
2024/02/24 02:48:36;;;;;;;9.13;8.07;;;;;;;;;;5102361;28;20576;-87
2024/02/24 02:51:03;;;;;;;11.07;7.23;;;;;;;;;;5093148;28;20204;-86
2024/02/24 02:53:30;;;;;;;16.57;14.33;;;;;;;;;;5092945;28;20777;-87
2024/02/24 02:55:57;;;;;;;18.37;14.40;;;;;;;;;;5093553;28;20196;-86
2024/02/24 02:58:25;;;;;;;12.80;9.93;;;;;;;;;;5074223;28;20212;-87
2024/02/24 03:00:52;;;;;;;9.87;8.70;;;;;;;;;;5093558;28;20562;-87
2024/02/24 03:03:21;;;;;;;11.37;8.00;;;;;;;;;;5093316;28;20562;-88
2024/02/24 03:05:48;;;;;;;8.67;7.77;;;;;;;;;;5092988;28;20726;-87
2024/02/24 03:08:14;;;;;;;10.17;7.53;;;;;;;;;;5092830;28;20212;-87
2024/02/24 03:10:41;;;;;;;8.50;7.60;;;;;;;;;;5092887;28;20200;-87
2024/02/24 03:13:08;;;;;;;11.27;7.47;;;;;;;;;;5097149;28;20195;-87
2024/02/24 03:15:37;;;;;;;9.87;8.87;;;;;;;;;;5079027;28;20228;-88
2024/02/24 03:18:04;;;;;;;9.07;7.23;;;;;;;;;;5083632;28;20204;-87
2024/02/24 03:20:30;;;;;;;9.40;7.53;;;;;;;;;;5092900;28;20204;-87
2024/02/24 03:22:57;;;;;;;8.57;7.67;;;;;;;;;;5092135;28;20637;-87
2024/02/24 03:25:24;;;;;;;9.53;7.67;;;;;;;;;;5093255;28;20547;-87
2024/02/24 03:27:51;;;;;;;10.83;7.60;;;;;;;;;;5093039;28;20619;-87
2024/02/24 03:30:18;;;;;;;9.30;8.00;;;;;;;;;;5092963;28;20257;-86
2024/02/24 03:32:46;;;;;;;10.93;7.67;;;;;;;;;;5100810;28;20234;-87
2024/02/24 03:35:13;;;;;;;9.20;7.90;;;;;;;;;;5092722;28;20224;-87
2024/02/24 03:37:40;;;;;;;11.53;8.73;;;;;;;;;;5092263;28;20207;-86
2024/02/24 03:40:08;;;;;;;14.40;12.40;;;;;;;;;;5092458;28;20192;-86
2024/02/24 03:42:35;;;;;;;10.57;9.00;;;;;;;;;;5091899;28;20200;-87
2024/02/24 03:45:02;;;;;;;9.93;8.33;;;;;;;;;;5107164;28;20286;-87
2024/02/24 03:47:29;;;;;;;10.87;7.83;;;;;;;;;;5092202;28;20238;-87
2024/02/24 03:49:57;;;;;;;11.77;8.03;;;;;;;;;;5094237;28;20250;-87
2024/02/24 03:52:23;;;;;;;10.67;7.63;;;;;;;;;;5092872;28;20200;-87
2024/02/24 03:54:50;;;;;;;8.70;7.23;;;;;;;;;;5092024;28;20211;-88
2024/02/24 03:57:17;;;;;;;8.90;8.00;;;;;;;;;;5092582;28;20291;-87
2024/02/24 03:59:44;;;;;;;10.27;8.43;;;;;;;;;;5092413;28;20196;-87
2024/02/24 04:02:10;;;;;;;10.33;8.57;;;;;;;;;;5092995;28;20196;-86
2024/02/24 04:04:37;;;;;;;12.07;10.70;;;;;;;;;;5100160;28;20258;-88
2024/02/24 04:07:06;;;;;;;8.40;7.30;;;;;;;;;;5092348;28;20678;-88
2024/02/24 04:09:33;;;;;;;9.73;7.90;;;;;;;;;;5091964;28;20208;-88
2024/02/24 04:11:59;;;;;;;9.20;8.27;;;;;;;;;;5092342;28;20197;-87
2024/02/24 04:14:26;;;;;;;8.60;7.07;;;;;;;;;;5099782;28;20195;-87
2024/02/24 04:16:54;;;;;;;11.27;8.60;;;;;;;;;;5109067;28;20250;-87
2024/02/24 04:19:20;;;;;;;8.50;7.03;;;;;;;;;;5092571;28;20654;-88
2024/02/24 04:21:47;;;;;;;9.70;7.57;;;;;;;;;;5091377;28;20654;-88
2024/02/24 04:24:15;;;;;;;10.03;7.83;;;;;;;;;;5091979;28;20667;-87
2024/02/24 04:26:42;;;;;;;10.43;8.40;;;;;;;;;;5092175;28;20262;-87
2024/02/24 04:29:09;;;;;;;9.57;7.87;;;;;;;;;;5100002;28;20616;-88
2024/02/24 04:31:35;;;;;;;9.37;8.47;;;;;;;;;;5092610;28;20196;-87
2024/02/24 04:34:02;;;;;;;31.13;24.93;;;;;;;;;;5091887;28;20228;-87
2024/02/24 04:36:29;;;;;;;19.97;17.80;;;;;;;;;;5095816;28;20724;-87
2024/02/24 04:38:56;;;;;;;14.20;11.33;;;;;;;;;;5096226;28;20203;-87
2024/02/24 04:41:24;;;;;;;16.00;10.63;;;;;;;;;;5104989;28;20196;-88
2024/02/24 04:43:51;;;;;;;46.33;39.80;;;;;;;;;;5103486;28;20196;-87
2024/02/24 04:46:17;;;;;;;30.97;27.67;;;;;;;;;;5096115;28;20196;-87
2024/02/24 04:48:44;;;;;;;47.07;41.43;;;;;;;;;;5095238;28;20689;-87
2024/02/24 04:51:11;;;;;;;15.23;13.63;;;;;;;;;;5095783;28;20659;-88
2024/02/24 04:53:38;;;;;;;11.07;9.97;;;;;;;;;;5096183;28;20267;-87
2024/02/24 04:56:05;;;;;;;10.30;9.30;;;;;;;;;;5095490;28;20211;-87
2024/02/24 04:58:33;;;;;;;10.00;7.83;;;;;;;;;;5096099;28;20200;-87
2024/02/24 05:01:00;;;;;;;10.40;8.70;;;;;;;;;;5095051;28;20203;-88
2024/02/24 05:03:26;;;;;;;20.63;12.03;;;;;;;;;;5095649;28;20196;-87
2024/02/24 05:05:53;;;;;;;9.70;8.33;;;;;;;;;;5079166;28;20201;-87
2024/02/24 05:08:20;;;;;;;10.43;8.23;;;;;;;;;;5094685;28;20236;-87
2024/02/24 05:10:47;;;;;;;9.83;7.43;;;;;;;;;;5110019;28;20597;-87
2024/02/24 05:13:14;;;;;;;9.13;8.07;;;;;;;;;;5082182;28;20200;-88
2024/02/24 05:15:42;;;;;;;8.63;7.73;;;;;;;;;;5103337;28;20203;-87
2024/02/24 05:18:09;;;;;;;10.60;8.13;;;;;;;;;;5095440;28;20196;-87
2024/02/24 05:20:36;;;;;;;11.47;8.97;;;;;;;;;;5095238;28;20257;-87
2024/02/24 05:23:03;;;;;;;10.00;8.30;;;;;;;;;;5095664;28;20196;-87
2024/02/24 05:25:30;;;;;;;9.83;8.87;;;;;;;;;;5095112;28;20196;-87
2024/02/24 05:27:58;;;;;;;14.80;11.83;;;;;;;;;;5086316;28;20281;-87
2024/02/24 05:30:24;;;;;;;15.10;12.40;;;;;;;;;;5095054;28;20206;-86
2024/02/24 05:32:52;;;;;;;11.63;9.17;;;;;;;;;;5094854;28;20257;-89
2024/02/24 05:35:19;;;;;;;9.07;8.10;;;;;;;;;;5094884;28;20709;-87
2024/02/24 05:37:46;;;;;;;10.37;8.47;;;;;;;;;;5095120;28;20204;-87
2024/02/24 05:40:15;;;;;;;8.00;7.17;;;;;;;;;;5094471;28;20196;-88
2024/02/24 05:42:42;;;;;;;12.60;8.83;;;;;;;;;;5099652;28;20191;-87
2024/02/24 05:45:10;;;;;;;12.77;9.67;;;;;;;;;;5097382;28;20273;-88
2024/02/24 05:47:37;;;;;;;18.33;16.47;;;;;;;;;;5106476;28;20215;-87
2024/02/24 05:50:07;;;;;;;18.47;14.97;;;;;;;;;;5094127;28;20710;-87
2024/02/24 05:52:34;;;;;;;16.17;13.47;;;;;;;;;;5075350;28;20197;-89
2024/02/24 05:55:01;;;;;;;59.17;33.83;;;;;;;;;;5091078;28;20193;-88
2024/02/24 05:57:27;;;;;;;58.23;35.77;;;;;;;;;;5074419;28;20205;-89
2024/02/24 05:59:54;;;;;;;37.70;27.57;;;;;;;;;;5083804;28;20201;-89
2024/02/24 06:02:21;;;;;;;34.67;29.33;;;;;;;;;;5074453;28;20212;-89
2024/02/24 06:04:48;;;;;;;28.70;23.47;;;;;;;;;;5075505;28;20735;-89
2024/02/24 06:07:16;;;;;;;19.33;16.00;;;;;;;;;;5085764;28;20722;-88
2024/02/24 06:09:43;;;;;;;24.03;17.40;;;;;;;;;;5095048;28;20253;-88
2024/02/24 06:12:10;;;;;;;22.17;16.17;;;;;;;;;;5085129;28;20208;-89
2024/02/24 06:14:37;;;;;;;15.67;12.87;;;;;;;;;;5074738;28;20262;-88
2024/02/24 06:17:04;;;;;;;13.83;10.73;;;;;;;;;;5075952;28;20254;-88
2024/02/24 06:19:30;;;;;;;10.90;9.47;;;;;;;;;;5094222;28;20204;-89
2024/02/24 06:21:57;;;;;;;13.77;10.50;;;;;;;;;;5080236;28;20729;-89
2024/02/24 06:24:25;;;;;;;15.77;13.40;;;;;;;;;;5082388;28;20204;-88
2024/02/24 06:26:52;;;;;;;14.30;12.30;;;;;;;;;;5093839;28;20650;-88
2024/02/24 06:29:19;;;;;;;13.53;11.97;;;;;;;;;;5094404;28;20682;-86
2024/02/24 06:31:46;;;;;;;18.73;14.43;;;;;;;;;;5093314;28;20654;-88
2024/02/24 06:34:12;;;;;;;17.50;14.23;;;;;;;;;;5093715;28;20235;-88
2024/02/24 06:36:39;;;;;;;18.47;15.23;;;;;;;;;;5094039;28;20192;-87
2024/02/24 06:39:07;;;;;;;17.10;14.03;;;;;;;;;;5102841;28;20203;-87
2024/02/24 06:41:35;;;;;;;13.20;11.40;;;;;;;;;;5093226;28;20228;-87
2024/02/24 06:44:02;;;;;;;16.17;12.40;;;;;;;;;;5101952;28;20196;-88
2024/02/24 06:46:29;;;;;;;14.17;12.40;;;;;;;;;;5081686;28;20201;-87
2024/02/24 06:48:56;;;;;;;14.80;11.77;;;;;;;;;;5090616;28;20232;-88
2024/02/24 06:51:22;;;;;;;15.47;12.80;;;;;;;;;;5093494;28;20196;-88
2024/02/24 06:53:49;;;;;;;14.17;11.63;;;;;;;;;;5093404;28;20671;-88
2024/02/24 06:56:20;;;;;;;12.87;11.57;;;;;;;;;;5079411;28;20655;-89
2024/02/24 06:58:48;;;;;;;12.70;10.67;;;;;;;;;;5082469;28;20287;-88
2024/02/24 07:01:21;;;;;;;10.43;8.70;;;;;;;;;;5073022;28;20197;-88
2024/02/24 07:03:48;;;;;;;12.57;9.70;;;;;;;;;;5073253;28;20663;-89
2024/02/24 07:06:15;;;;;;;13.20;11.47;;;;;;;;;;5078021;28;20201;-88
2024/02/24 07:08:42;;;;;;;13.67;11.00;;;;;;;;;;5090944;28;20755;-88
2024/02/24 07:11:09;;;;;;;15.40;12.63;;;;;;;;;;5085849;28;20206;-88
2024/02/24 07:13:36;;;;;;;15.70;12.60;;;;;;;;;;5099643;28;20200;-88
2024/02/24 07:16:05;;;;;;;11.23;10.03;;;;;;;;;;5093947;28;20253;-88
2024/02/24 07:18:31;;;;;;;12.80;9.90;;;;;;;;;;5096151;28;20199;-87
2024/02/24 07:20:58;;;;;;;11.13;9.67;;;;;;;;;;5086756;28;20279;-85
2024/02/24 07:23:25;;;;;;;12.30;9.70;;;;;;;;;;5072841;28;20197;-86
2024/02/24 07:25:52;;;;;;;10.97;9.87;;;;;;;;;;5099414;28;20200;-87
2024/02/24 07:28:18;;;;;;;11.60;10.07;;;;;;;;;;5098185;28;20223;-84
2024/02/24 07:30:45;;;;;;;9.40;8.23;;;;;;;;;;5100100;28;20654;-85
2024/02/24 07:33:13;;;;;;;9.90;8.90;;;;;;;;;;5090197;28;20549;-84
2024/02/24 07:35:40;;;;;;;12.87;9.53;;;;;;;;;;5092440;28;20197;-85
2024/02/24 07:38:07;;;;;;;9.63;8.60;;;;;;;;;;5091712;28;20203;-85
2024/02/24 07:40:34;;;;;;;10.23;9.23;;;;;;;;;;5092213;28;20196;-86
2024/02/24 07:43:01;;;;;;;9.00;8.10;;;;;;;;;;5091495;28;20718;-84
2024/02/24 07:45:28;;;;;;;8.23;7.40;;;;;;;;;;5091787;28;20196;-87
2024/02/24 07:47:55;;;;;;;5.23;4.83;;;;;;;;;;5091546;28;20200;-85
2024/02/24 07:50:23;;;;;;;8.17;6.77;;;;;;;;;;5091504;28;20196;-85
2024/02/24 07:52:50;;;;;;;6.10;5.50;;;;;;;;;;5091619;28;20249;-86
2024/02/24 07:55:18;;;;;;;6.63;6.00;;;;;;;;;;5090997;28;20623;-86
2024/02/24 07:57:44;;;;;;;6.63;5.60;;;;;;;;;;5092010;28;20200;-86
2024/02/24 08:00:12;;;;;;;5.17;4.67;;;;;;;;;;5106076;28;20211;-86
2024/02/24 08:02:40;;;;;;;5.43;4.77;;;;;;;;;;5092298;28;20290;-89
2024/02/24 08:05:07;;;;;;;6.10;4.53;;;;;;;;;;5091761;28;20212;-91
2024/02/24 08:07:35;;;;;;;7.27;5.33;;;;;;;;;;5091949;28;20250;-84
2024/02/24 08:10:02;;;;;;;7.27;4.20;;;;;;;;;;5099441;28;20231;-85
2024/02/24 08:12:29;;;;;;;6.13;4.17;;;;;;;;;;5103204;28;20685;-85
2024/02/24 08:14:56;;;;;;;4.40;3.60;;;;;;;;;;5091250;28;20200;-83
2024/02/24 08:17:22;;;;;;;5.37;3.97;;;;;;;;;;5092593;28;20199;-82
2024/02/24 08:19:49;;;;;;;5.33;3.63;;;;;;;;;;5097728;28;20203;-82
2024/02/24 08:22:16;;;;;;;4.07;3.67;;;;;;;;;;5091249;28;20677;-83
2024/02/24 08:24:45;;;;;;;3.57;3.27;;;;;;;;;;5095804;28;20260;-82
2024/02/24 08:27:11;;;;;;;9.00;3.47;;;;;;;;;;5086563;28;20201;-83
2024/02/24 08:29:38;;;;;;;7.00;3.03;;;;;;;;;;5089217;28;20223;-83
2024/02/24 08:32:06;;;;;;;5.97;3.40;;;;;;;;;;5090929;28;20192;-83
2024/02/24 08:34:33;;;;;;;8.70;4.37;;;;;;;;;;5107645;28;20223;-82
2024/02/24 08:36:59;;;;;;;3.50;3.20;;;;;;;;;;5091336;28;20334;-84
2024/02/24 08:39:26;;;;;;;3.73;3.27;;;;;;;;;;5090971;28;20188;-84
2024/02/24 08:41:54;;;;;;;4.27;3.70;;;;;;;;;;5091414;28;20217;-83
2024/02/24 08:44:21;;;;;;;4.37;3.90;;;;;;;;;;5101453;28;20192;-84
2024/02/24 08:46:48;;;;;;;4.97;4.33;;;;;;;;;;5090966;28;20216;-83
2024/02/24 08:49:14;;;;;;;5.20;4.50;;;;;;;;;;5090596;28;20278;-83
2024/02/24 08:51:41;;;;;;;4.23;3.80;;;;;;;;;;5090956;28;20195;-83
2024/02/24 08:54:08;;;;;;;5.07;3.60;;;;;;;;;;5107921;28;20258;-84
2024/02/24 08:56:35;;;;;;;5.90;3.40;;;;;;;;;;5090213;28;20633;-83
2024/02/24 08:59:03;;;;;;;5.57;3.53;;;;;;;;;;5091971;28;20275;-83
2024/02/24 09:01:30;;;;;;;4.23;3.80;;;;;;;;;;5090258;28;20203;-85
2024/02/24 09:03:59;;;;;;;8.27;4.77;;;;;;;;;;5088702;28;20195;-85
2024/02/24 09:06:26;;;;;;;5.13;3.60;;;;;;;;;;5082907;28;20207;-83
2024/02/24 09:08:52;;;;;;;5.60;4.20;;;;;;;;;;5090720;28;20253;-84
2024/02/24 09:11:19;;;;;;;3.67;2.90;;;;;;;;;;5090671;28;20245;-84
2024/02/24 09:13:47;;;;;;;4.17;3.30;;;;;;;;;;5088908;28;20200;-84
2024/02/24 09:16:17;;;;;;;3.80;3.20;;;;;;;;;;5087036;28;20287;-85
2024/02/24 09:18:44;;;;;;;3.30;3.00;;;;;;;;;;5084335;28;20740;-83
2024/02/24 09:21:10;;;;;;;6.70;3.27;;;;;;;;;;5092488;28;20686;-87
2024/02/24 09:23:37;;;;;;;5.67;3.30;;;;;;;;;;5094758;28;20211;-86
2024/02/24 09:26:04;;;;;;;4.23;3.83;;;;;;;;;;5079298;28;20207;-82
2024/02/24 09:28:31;;;;;;;4.90;3.33;;;;;;;;;;5075164;28;20197;-85
2024/02/24 09:30:58;;;;;;;3.17;2.77;;;;;;;;;;5079860;28;20196;-84
2024/02/24 09:33:26;;;;;;;6.57;3.60;;;;;;;;;;5093802;28;20220;-83
2024/02/24 09:35:53;;;;;;;4.63;3.80;;;;;;;;;;5087541;28;20196;-83
2024/02/24 09:38:19;;;;;;;5.40;3.87;;;;;;;;;;5093783;28;20626;-84
2024/02/24 09:40:49;;;;;;;3.60;3.30;;;;;;;;;;5094802;28;20270;-85
2024/02/24 09:43:16;;;;;;;4.13;3.47;;;;;;;;;;5091650;28;20675;-84
2024/02/24 09:45:46;;;;;;;3.57;3.23;;;;;;;;;;5094296;28;20640;-83
2024/02/24 09:48:13;;;;;;;3.83;3.43;;;;;;;;;;5093570;28;20192;-84
2024/02/24 09:50:41;;;;;;;3.53;3.23;;;;;;;;;;5094732;28;20277;-88
2024/02/24 09:53:09;;;;;;;4.20;3.30;;;;;;;;;;5086361;28;20560;-88
2024/02/24 09:55:36;;;;;;;5.97;3.90;;;;;;;;;;5074608;28;20197;-87
2024/02/24 09:58:06;;;;;;;5.87;4.50;;;;;;;;;;5075241;28;21329;-88
2024/02/24 10:00:33;;;;;;;4.80;3.53;;;;;;;;;;5074687;28;20201;-87
2024/02/24 10:03:00;;;;;;;4.53;3.73;;;;;;;;;;5076771;28;20188;-88
2024/02/24 10:05:27;;;;;;;4.50;3.10;;;;;;;;;;5095522;28;20192;-87
2024/02/24 10:07:55;;;;;;;6.20;2.70;;;;;;;;;;5093510;28;20207;-87
2024/02/24 10:10:26;;;;;;;4.23;3.83;;;;;;;;;;5094789;28;20223;-88
2024/02/24 10:12:57;;;;;;;6.40;3.23;;;;;;;;;;5094110;28;20295;-94
2024/02/24 10:15:24;;;;;;;3.47;3.00;;;;;;;;;;5095506;28;20231;-93
2024/02/24 10:17:54;;;;;;;3.47;2.93;;;;;;;;;;5093993;28;20235;-94
2024/02/24 10:20:20;;;;;;;2.60;2.40;;;;;;;;;;5106356;28;20208;-87
2024/02/24 10:22:47;;;;;;;5.37;3.23;;;;;;;;;;5113944;28;20645;-84
2024/02/24 10:25:16;;;;;;;5.63;4.57;;;;;;;;;;5114402;28;20195;-84
2024/02/24 10:27:44;;;;;;;47.00;32.30;;;;;;;;;;5111648;28;20290;-85
2024/02/24 10:30:11;;;;;;;23.47;17.17;;;;;;;;;;5093802;28;20314;-85
2024/02/24 10:32:39;;;;;;;4.70;4.30;;;;;;;;;;5091516;28;20200;-85
2024/02/24 10:35:08;;;;;;;4.07;3.70;;;;;;;;;;5093922;28;20232;-87
2024/02/24 10:37:36;;;;;;;2.77;2.57;;;;;;;;;;5093612;28;20287;-85
2024/02/24 10:46:39;;;;;;;4.63;3.33;;;;;;;18.51;34.19;96368.13;5101309;27;1329956;-86
2024/02/24 10:49:06;;;;;;;4.00;3.27;;;;;;;18.62;35.81;96367.59;5091982;28;20206;-88
2024/02/24 10:51:35;;;;;;;3.77;3.47;;;;;;;18.65;32.91;96365.00;5093788;28;20192;-87
2024/02/24 10:54:06;;;;;;;3.57;3.33;;;;;;;18.87;33.08;96338.66;5131320;28;20605;-88
2024/02/24 10:56:33;;;;;;;3.80;3.50;;;;;;;19.23;33.66;96372.72;5112640;28;20202;-90
2024/02/24 10:59:07;;;;;;;3.53;3.23;;;;;;;19.40;32.53;96372.41;5130431;28;20198;-91
2024/02/24 11:01:42;;;;;;;4.27;3.87;;;;;;;18.88;33.40;96356.41;5130287;28;20222;-87
2024/02/24 11:04:10;;;;;;;5.47;3.23;;;;;;;19.44;32.40;96356.31;5130822;28;20222;-88
2024/02/24 11:06:48;;;;;;;4.33;3.10;;;;;;;19.59;32.00;96366.28;5131080;28;20218;-86
2024/02/24 11:09:16;;;;;;;2.83;2.43;;;;;;;19.67;32.18;96349.16;5130354;28;20203;-87
2024/02/24 11:11:43;;;;;;;3.10;2.53;;;;;;;19.33;31.06;96337.16;5128519;28;20285;-86
2024/02/24 11:14:11;;;;;;;2.60;2.40;;;;;;;19.45;31.08;96357.88;5111119;28;20234;-82
2024/02/24 11:16:43;;;;;;;2.10;2.00;;;;;;;18.92;31.23;96347.28;5115409;28;20200;-83
2024/02/24 11:19:11;;;;;;;2.20;2.00;;;;;;;18.83;31.88;96345.88;5116650;28;20206;-83
2024/02/24 11:21:59;;;;;;;2.37;2.17;;;;;;;19.94;31.16;96339.38;5128837;28;20259;-82
2024/02/24 11:24:31;;;;;;;3.60;3.03;;;;;;;19.55;30.72;96354.63;5118001;28;20214;-83
2024/02/24 11:26:58;;;;;;;2.27;2.00;;;;;;;19.47;31.38;96344.78;5128211;28;20287;-83
2024/02/24 11:29:26;;;;;;;2.40;2.20;;;;;;;20.12;30.05;96360.56;5128728;28;20191;-83
2024/02/24 11:32:05;;;;;;;2.40;1.97;;;;;;;20.22;29.46;96333.00;5129204;28;20230;-83
2024/02/24 11:34:36;;;;;;;3.10;2.03;;;;;;;19.95;30.20;96324.72;5129417;28;20205;-82
2024/02/24 11:37:03;;;;;;;5.27;2.23;;;;;;;19.59;30.48;96339.28;5129326;28;20285;-83
2024/02/24 11:39:30;;;;;;;4.47;2.30;;;;;;;19.56;30.42;96334.59;5127743;28;20614;-83
2024/02/24 11:41:58;;;;;;;3.83;2.43;;;;;;;19.68;30.09;96337.22;5129253;28;20206;-83
2024/02/24 11:44:25;;;;;;;2.13;2.00;;;;;;;19.96;29.38;96333.59;5127598;28;20198;-83
2024/02/24 11:46:52;;;;;;;2.37;2.20;;;;;;;19.99;30.51;96330.19;5128396;28;20604;-83
2024/02/24 11:49:20;;;;;;;1.83;1.73;;;;;;;20.02;29.29;96291.69;5109579;28;20199;-83
2024/02/24 11:51:48;;;;;;;2.00;1.90;;;;;;;20.19;29.02;96323.66;5108773;28;20245;-83
2024/02/24 11:54:16;;;;;;;1.97;1.87;;;;;;;20.01;29.98;96320.59;5108902;28;20200;-83
2024/02/24 11:56:44;;;;;;;3.83;2.50;;;;;;;20.22;28.85;96322.97;5101881;28;20232;-83
2024/02/24 11:59:10;;;;;;;1.83;1.73;;;;;;;19.54;30.46;96272.84;5095093;28;20201;-83
2024/02/24 12:01:40;;;;;;;2.03;1.83;;;;;;;20.21;30.63;96307.91;5100676;28;20198;-83
2024/02/24 12:04:06;;;;;;;6.03;1.97;;;;;;;19.47;31.13;96310.47;5103504;28;20570;-83
2024/02/24 12:06:35;;;;;;;2.00;1.90;;;;;;;19.57;30.26;96305.69;5093706;28;20216;-83
2024/02/24 12:09:02;;;;;;;2.40;2.00;;;;;;;20.10;30.17;96309.59;5103561;28;20226;-83
2024/02/24 12:11:29;;;;;;;2.20;2.00;;;;;;;20.41;29.02;96302.50;5115205;28;20303;-83
2024/02/24 12:13:56;;;;;;;2.40;2.10;;;;;;;19.99;29.53;96282.34;5097610;28;20640;-83
2024/02/24 12:16:24;;;;;;;2.10;1.90;;;;;;;19.96;30.09;96309.28;5093262;28;20693;-83
2024/02/24 12:18:50;;;;;;;2.70;2.00;;;;;;;20.42;29.97;96315.63;5093532;28;20196;-83
2024/02/24 12:21:17;;;;;;;2.57;2.03;;;;;;;19.73;30.54;96301.84;5093980;28;20198;-83
2024/02/24 12:23:45;;;;;;;4.47;2.33;;;;;;;19.77;31.01;96310.81;5094101;28;20207;-83
2024/02/24 12:26:12;;;;;;;3.00;1.93;;;;;;;19.90;30.16;96313.38;5101466;28;20228;-85
2024/02/24 12:28:43;;;;;;;3.43;2.20;;;;;;;19.86;30.39;96274.72;5111726;28;20677;-83
2024/02/24 12:31:11;;;;;;;3.10;1.87;;;;;;;19.87;29.69;96293.28;5113375;28;20227;-81
2024/02/24 12:33:38;;;;;;;2.33;1.97;;;;;;;19.89;30.38;96301.03;5113487;28;20275;-84
2024/02/24 12:36:07;;;;;;;2.00;1.90;;;;;;;19.77;30.09;96291.13;5113307;28;20665;-82
2024/02/24 12:38:37;;;;;;;2.37;2.17;;;;;;;19.72;29.18;96283.31;5113254;28;20214;-85
2024/02/24 12:41:09;;;;;;;3.87;2.33;;;;;;;19.71;30.08;96306.06;5099371;28;20197;-87
2024/02/24 12:43:36;;;;;;;3.03;2.20;;;;;;;19.43;30.42;96301.50;5101421;28;20275;-83
2024/02/24 12:46:03;;;;;;;1.93;1.73;;;;;;;19.51;29.50;96284.38;5113675;28;20313;-84
2024/02/24 12:48:30;;;;;;;2.23;1.83;;;;;;;19.43;29.09;96279.91;5113686;28;20199;-84
2024/02/24 12:50:57;;;;;;;1.83;1.67;;;;;;;19.48;28.97;96303.97;5113175;28;20195;-83
2024/02/24 12:53:24;;;;;;;2.43;2.23;;;;;;;19.52;29.13;96295.94;5113500;28;20291;-83
2024/02/24 12:55:51;;;;;;;2.50;1.70;;;;;;;19.35;29.08;96297.09;5114427;28;20206;-85
2024/02/24 12:58:23;;;;;;;1.60;1.50;;;;;;;19.39;29.41;96295.25;5113943;28;20200;-84
2024/02/24 13:00:50;;;;;;;4.23;1.80;;;;;;;19.61;28.53;96293.06;5114132;28;20202;-84
2024/02/24 13:03:18;;;;;;;4.20;2.20;;;;;;;19.44;29.08;96288.81;5114023;28;20195;-82
2024/02/24 13:05:45;;;;;;;3.50;1.70;;;;;;;19.46;28.68;96276.53;5113889;28;20215;-85
2024/02/24 13:08:12;;;;;;;2.10;1.57;;;;;;;19.77;28.58;96293.81;5113279;28;20203;-86
2024/02/24 13:10:39;;;;;;;3.63;2.00;;;;;;;19.47;28.42;96290.78;5106858;28;20676;-85
2024/02/24 13:13:06;;;;;;;1.77;1.63;;;;;;;19.48;28.48;96289.69;5092435;28;20200;-87
2024/02/24 13:15:34;;;;;;;1.50;1.40;;;;;;;19.19;28.79;96302.50;5098638;28;20208;-85
2024/02/24 13:18:01;;;;;;;3.13;1.40;;;;;;;19.05;28.82;96277.88;5103900;28;20199;-85
2024/02/24 13:20:28;;;;;;;1.83;1.73;;;;;;;19.28;29.07;96311.22;5112852;28;20206;-85
2024/02/24 13:22:55;;;;;;;1.70;1.60;;;;;;;19.57;28.75;96301.06;5100231;28;20674;-83
2024/02/24 13:25:22;;;;;;;1.87;1.77;;;;;;;19.87;28.09;96301.38;5093156;28;20216;-84
2024/02/24 13:27:49;;;;;;;3.80;2.50;;;;;;;19.13;28.56;96260.72;5092485;28;20224;-87
2024/02/24 13:30:16;;;;;;;2.87;1.53;;;;;;;19.18;28.73;96306.31;5092068;28;20196;-86
2024/02/24 13:32:44;;;;;;;1.70;1.60;;;;;;;19.34;28.41;96278.53;5092557;28;20200;-85
2024/02/24 13:35:11;;;;;;;2.17;1.87;;;;;;;19.79;28.82;96311.25;5104360;28;20280;-85
2024/02/24 13:37:38;;;;;;;1.57;1.47;;;;;;;19.87;27.88;96304.09;5112597;28;20199;-85
2024/02/24 13:40:07;;;;;;;5.23;1.60;;;;;;;19.53;28.22;96306.38;5113394;28;20203;-85
2024/02/24 13:42:37;;;;;;;1.60;1.50;;;;;;;19.67;28.23;96308.66;5112178;28;20195;-85
2024/02/24 13:45:06;;;;;;;4.63;1.90;;;;;;;19.72;28.26;96303.00;5105961;28;20224;-93
2024/02/24 13:47:34;;;;;;;2.03;1.53;;;;;;;19.62;28.05;96292.72;5093033;28;20227;-92
2024/02/24 13:50:02;;;;;;;1.73;1.63;;;;;;;19.37;28.61;96307.53;5094776;28;20264;-88
2024/02/24 13:52:29;;;;;;;2.90;1.67;;;;;;;19.26;28.45;96305.38;5094486;28;20211;-89